createdAt,value
2018-11-26T00:01:28.927Z,18.95
2018-11-26T00:03:56.438Z,19.30
2018-11-26T00:06:24.005Z,18.57
2018-11-26T00:08:51.546Z,18.77
2018-11-26T00:11:30.655Z,18.02
2018-11-26T00:13:58.306Z,17.07
2018-11-26T00:16:25.823Z,19.95
2018-11-26T00:18:53.343Z,18.17
2018-11-26T00:21:20.894Z,19.42
2018-11-26T00:23:48.427Z,18.27
2018-11-26T00:26:15.918Z,18.23
2018-11-26T00:28:43.487Z,19.48
2018-11-26T00:31:10.983Z,18.80
2018-11-26T00:33:38.513Z,18.57
2018-11-26T00:36:06.211Z,20.48
2018-11-26T00:38:33.772Z,21.35
2018-11-26T00:41:01.280Z,17.82
2018-11-26T00:43:28.858Z,19.37
2018-11-26T00:45:56.328Z,17.52
2018-11-26T00:48:23.850Z,19.12
2018-11-26T00:50:51.319Z,18.85
2018-11-26T00:53:18.838Z,18.17
2018-11-26T00:55:46.392Z,17.00
2018-11-26T00:58:13.845Z,19.77
2018-11-26T01:00:41.379Z,18.40
2018-11-26T01:03:08.823Z,17.92
2018-11-26T01:05:38.042Z,18.00
2018-11-26T01:08:05.793Z,17.67
2018-11-26T01:10:33.413Z,18.20
2018-11-26T01:13:01.002Z,17.55
2018-11-26T01:15:28.566Z,18.00
2018-11-26T01:17:56.062Z,16.75
2018-11-26T01:20:23.575Z,16.10
2018-11-26T01:22:51.105Z,17.00
2018-11-26T01:25:18.650Z,16.97
2018-11-26T01:27:46.098Z,18.17
2018-11-26T01:30:13.692Z,17.77
2018-11-26T01:32:41.308Z,18.02
2018-11-26T01:35:08.923Z,18.10
2018-11-26T01:37:36.447Z,17.23
2018-11-26T01:40:06.651Z,17.87
2018-11-26T01:42:34.132Z,18.32
2018-11-26T01:45:02.167Z,15.70
2018-11-26T01:47:29.614Z,17.20
2018-11-26T01:49:57.151Z,18.02
2018-11-26T01:52:24.596Z,16.93
2018-11-26T01:54:52.143Z,16.35
2018-11-26T01:57:19.587Z,15.83
2018-11-26T01:59:47.137Z,17.27
2018-11-26T02:02:14.647Z,16.90
2018-11-26T02:04:42.142Z,16.17
2018-11-26T02:07:09.703Z,16.17
2018-11-26T02:09:37.195Z,15.70
2018-11-26T02:12:04.924Z,16.95
2018-11-26T02:14:32.447Z,16.10
2018-11-26T02:17:00.010Z,16.07
2018-11-26T02:19:27.480Z,16.07
2018-11-26T02:21:55.021Z,14.55
2018-11-26T02:24:22.479Z,15.53
2018-11-26T02:26:50.038Z,16.07
2018-11-26T02:29:17.505Z,13.10
2018-11-26T02:31:45.136Z,14.83
2018-11-26T02:34:12.605Z,14.50
2018-11-26T02:36:40.135Z,14.15
2018-11-26T02:39:07.660Z,14.73
2018-11-26T02:41:35.181Z,13.25
2018-11-26T02:44:02.730Z,13.83
2018-11-26T02:46:30.220Z,12.88
2018-11-26T02:48:57.811Z,13.28
2018-11-26T02:51:25.297Z,11.35
2018-11-26T02:53:52.905Z,12.33
2018-11-26T02:56:20.380Z,11.80
2018-11-26T02:58:47.913Z,11.70
2018-11-26T03:01:15.471Z,13.22
2018-11-26T03:03:43.031Z,11.83
2018-11-26T03:06:10.505Z,12.05
2018-11-26T03:08:38.041Z,12.07
2018-11-26T03:11:05.557Z,12.10
2018-11-26T03:13:33.155Z,10.82
2018-11-26T03:16:00.844Z,13.25
2018-11-26T03:18:28.379Z,11.28
2018-11-26T03:20:55.899Z,12.05
2018-11-26T03:23:23.359Z,13.15
2018-11-26T03:25:50.871Z,12.53
2018-11-26T03:28:18.372Z,11.93
2018-11-26T03:30:45.910Z,13.08
2018-11-26T03:33:13.387Z,12.58
2018-11-26T03:35:40.943Z,12.50
2018-11-26T03:38:11.885Z,12.85
2018-11-26T03:40:39.452Z,13.32
2018-11-26T03:43:06.990Z,13.40
2018-11-26T03:45:34.525Z,13.10
2018-11-26T03:48:01.991Z,14.75
2018-11-26T03:50:29.560Z,13.25
2018-11-26T03:52:57.023Z,14.58
2018-11-26T03:55:24.535Z,13.70
2018-11-26T03:57:52.076Z,14.40
2018-11-26T04:00:19.522Z,14.10
2018-11-26T04:02:47.018Z,14.00
2018-11-26T04:05:14.461Z,13.93
2018-11-26T04:07:42.018Z,13.80
2018-11-26T04:10:10.523Z,15.53
2018-11-26T04:12:38.052Z,14.38
2018-11-26T04:15:07.441Z,15.20
2018-11-26T04:17:34.982Z,14.87
2018-11-26T04:20:02.469Z,15.30
2018-11-26T04:22:30.005Z,15.32
2018-11-26T04:24:57.458Z,16.25
2018-11-26T04:27:25.002Z,14.47
2018-11-26T04:29:52.458Z,16.52
2018-11-26T04:32:19.993Z,15.40
2018-11-26T04:34:47.457Z,15.50
2018-11-26T04:37:14.961Z,15.35
2018-11-26T04:39:42.432Z,15.38
2018-11-26T04:42:10.047Z,15.93
2018-11-26T04:44:37.630Z,15.60
2018-11-26T04:47:05.171Z,14.58
2018-11-26T04:49:32.703Z,15.23
2018-11-26T04:52:00.169Z,15.83
2018-11-26T04:54:27.727Z,15.28
2018-11-26T04:56:55.173Z,16.95
2018-11-26T04:59:22.715Z,16.90
2018-11-26T05:01:50.174Z,16.25
2018-11-26T05:04:17.767Z,17.15
2018-11-26T05:06:45.272Z,16.00
2018-11-26T05:09:12.770Z,16.57
2018-11-26T05:11:40.264Z,16.42
2018-11-26T05:14:07.851Z,16.37
2018-11-26T05:16:35.390Z,16.90
2018-11-26T05:19:02.866Z,15.53
2018-11-26T05:21:30.390Z,17.17
2018-11-26T05:23:57.861Z,17.77
2018-11-26T05:26:25.410Z,15.58
2018-11-26T05:28:52.890Z,15.40
2018-11-26T05:31:20.462Z,16.40
2018-11-26T05:33:47.922Z,16.95
2018-11-26T05:36:15.471Z,17.25
2018-11-26T05:38:42.935Z,17.95
2018-11-26T05:41:10.494Z,17.40
2018-11-26T05:43:37.982Z,18.42
2018-11-26T05:46:05.611Z,18.15
2018-11-26T05:48:33.097Z,17.73
2018-11-26T05:51:01.012Z,18.10
2018-11-26T05:53:28.554Z,18.80
2018-11-26T05:55:56.143Z,18.50
2018-11-26T05:58:23.590Z,17.90
2018-11-26T06:00:51.126Z,16.95
2018-11-26T06:03:18.619Z,18.50
2018-11-26T06:05:46.191Z,18.23
2018-11-26T06:08:13.659Z,19.20
2018-11-26T06:10:41.181Z,18.52
2018-11-26T06:13:08.829Z,18.23
2018-11-26T06:15:36.315Z,18.23
2018-11-26T06:18:04.018Z,19.00
2018-11-26T06:20:31.526Z,18.10
2018-11-26T06:22:59.094Z,17.17
2018-11-26T06:25:26.610Z,18.98
2018-11-26T06:27:54.199Z,18.32
2018-11-26T06:30:21.678Z,17.92
2018-11-26T06:32:49.221Z,18.45
2018-11-26T06:35:18.930Z,18.67
2018-11-26T06:37:46.486Z,19.32
2018-11-26T06:40:14.089Z,19.48
2018-11-26T06:42:41.736Z,20.45
2018-11-26T06:45:12.710Z,22.32
2018-11-26T06:47:40.755Z,20.90
2018-11-26T06:50:10.164Z,19.00
2018-11-26T06:52:37.731Z,18.12
2018-11-26T06:55:06.861Z,18.75
2018-11-26T06:57:34.320Z,19.37
2018-11-26T07:00:02.152Z,20.57
2018-11-26T07:02:29.614Z,20.00
2018-11-26T07:04:57.154Z,18.80
2018-11-26T07:07:24.622Z,19.52
2018-11-26T07:09:52.171Z,20.02
2018-11-26T07:12:19.663Z,18.85
2018-11-26T07:14:47.271Z,19.05
2018-11-26T07:17:21.335Z,20.23
2018-11-26T07:19:49.019Z,19.70
2018-11-26T07:22:16.522Z,19.25
2018-11-26T07:24:45.083Z,19.23
2018-11-26T07:27:12.562Z,21.10
2018-11-26T07:29:40.116Z,19.85
2018-11-26T07:32:07.597Z,20.48
2018-11-26T07:34:35.103Z,20.05
2018-11-26T07:37:02.727Z,22.62
2018-11-26T07:39:30.278Z,18.73
2018-11-26T07:41:57.794Z,20.55
2018-11-26T07:44:25.236Z,20.77
2018-11-26T07:46:52.892Z,20.52
2018-11-26T07:49:20.373Z,19.50
2018-11-26T07:51:47.923Z,18.82
2018-11-26T07:54:15.434Z,20.40
2018-11-26T07:56:42.968Z,19.23
2018-11-26T07:59:10.435Z,19.23
2018-11-26T08:01:38.036Z,20.25
2018-11-26T08:04:05.606Z,20.80
2018-11-26T08:06:33.178Z,21.15
2018-11-26T08:09:00.786Z,18.30
2018-11-26T08:11:28.378Z,19.70
2018-11-26T08:13:55.915Z,18.48
2018-11-26T08:16:23.454Z,18.95
2018-11-26T08:18:50.949Z,19.05
2018-11-26T08:21:18.494Z,20.45
2018-11-26T08:23:46.031Z,20.05
2018-11-26T08:26:13.482Z,17.80
2018-11-26T08:28:41.055Z,19.15
2018-11-26T08:31:08.519Z,18.02
2018-11-26T08:33:36.069Z,19.00
2018-11-26T08:36:09.305Z,19.00
2018-11-26T08:38:42.574Z,17.02
2018-11-26T08:41:13.982Z,18.48
2018-11-26T08:43:43.732Z,18.70
2018-11-26T08:46:12.370Z,19.00
2018-11-26T08:48:45.684Z,17.40
2018-11-26T08:51:13.186Z,17.42
2018-11-26T08:53:40.754Z,17.90
2018-11-26T08:56:08.238Z,18.17
2018-11-26T08:58:35.841Z,18.50
2018-11-26T09:01:05.210Z,17.30
2018-11-26T09:03:40.283Z,17.95
2018-11-26T09:06:07.755Z,19.45
2018-11-26T09:08:36.242Z,17.48
2018-11-26T09:11:04.538Z,18.20
2018-11-26T09:13:32.099Z,18.50
2018-11-26T09:15:59.658Z,19.02
2018-11-26T09:18:27.183Z,19.35
2018-11-26T09:20:54.725Z,17.50
2018-11-26T09:23:22.192Z,18.98
2018-11-26T09:25:49.763Z,19.70
2018-11-26T09:28:17.255Z,20.62
2018-11-26T09:30:44.822Z,18.35
2018-11-26T09:33:12.283Z,19.37
2018-11-26T09:35:39.845Z,19.40
2018-11-26T09:38:07.357Z,17.98
2018-11-26T09:40:35.024Z,19.85
2018-11-26T09:43:02.551Z,17.52
2018-11-26T09:45:30.137Z,18.42
2018-11-26T09:47:57.623Z,18.42
2018-11-26T09:50:25.137Z,19.80
2018-11-26T09:52:52.676Z,19.42
2018-11-26T09:55:20.196Z,18.80
2018-11-26T09:57:47.742Z,20.17
2018-11-26T10:00:16.381Z,19.73
2018-11-26T10:02:45.100Z,18.42
2018-11-26T10:05:13.938Z,18.73
2018-11-26T10:07:41.535Z,19.45
2018-11-26T10:10:10.380Z,18.95
2018-11-26T10:12:38.442Z,18.77
2018-11-26T10:15:13.588Z,19.82
2018-11-26T10:17:41.184Z,19.32
2018-11-26T10:20:09.593Z,19.50
2018-11-26T10:22:37.225Z,19.12
2018-11-26T10:25:06.171Z,17.90
2018-11-26T10:27:33.599Z,20.23
2018-11-26T10:30:01.407Z,19.05
2018-11-26T10:32:28.967Z,19.50
2018-11-26T10:34:56.441Z,19.52
2018-11-26T10:37:24.006Z,20.52
2018-11-26T10:39:51.589Z,20.77
2018-11-26T10:42:19.132Z,19.30
2018-11-26T10:44:46.711Z,20.57
2018-11-26T10:47:14.194Z,20.00
2018-11-26T10:49:41.740Z,20.97
2018-11-26T10:52:09.231Z,20.15
2018-11-26T10:54:36.847Z,19.82
2018-11-26T10:57:05.015Z,21.52
2018-11-26T10:59:32.555Z,21.40
2018-11-26T11:02:01.032Z,22.87
2018-11-26T11:04:28.803Z,20.68
2018-11-26T11:06:56.334Z,20.62
2018-11-26T11:09:23.928Z,21.30
2018-11-26T11:11:51.406Z,22.05
2018-11-26T11:14:19.009Z,22.25
2018-11-26T11:16:46.475Z,21.23
2018-11-26T11:19:14.050Z,21.20
2018-11-26T11:21:41.553Z,21.10
2018-11-26T11:24:09.133Z,21.75
2018-11-26T11:26:36.724Z,21.27
2018-11-26T11:29:04.244Z,20.55
2018-11-26T11:31:31.793Z,21.42
2018-11-26T11:33:59.334Z,22.32
2018-11-26T11:36:26.911Z,21.90
2018-11-26T11:38:54.435Z,22.37
2018-11-26T11:41:21.999Z,21.70
2018-11-26T11:43:49.551Z,21.60
2018-11-26T11:46:17.091Z,20.77
2018-11-26T11:48:44.567Z,23.27
2018-11-26T11:51:12.124Z,22.73
2018-11-26T11:53:39.594Z,24.00
2018-11-26T11:56:07.159Z,23.20
2018-11-26T11:58:34.631Z,22.67
2018-11-26T12:01:02.358Z,21.77
2018-11-26T12:03:29.823Z,23.27
2018-11-26T12:05:57.387Z,23.70
2018-11-26T12:08:24.878Z,22.65
2018-11-26T12:10:52.473Z,25.17
2018-11-26T12:13:20.012Z,23.50
2018-11-26T12:15:49.412Z,22.90
2018-11-26T12:18:17.017Z,25.20
2018-11-26T12:20:44.488Z,26.10
2018-11-26T12:23:12.097Z,22.87
2018-11-26T12:25:39.573Z,25.10
2018-11-26T12:28:07.209Z,24.95
2018-11-26T12:30:37.429Z,25.60
2018-11-26T12:33:05.306Z,23.18
2018-11-26T12:35:32.992Z,26.15
2018-11-26T12:38:00.827Z,24.25
2018-11-26T12:40:28.359Z,24.80
2018-11-26T12:42:57.132Z,25.08
2018-11-26T12:45:26.788Z,24.70
2018-11-26T12:47:54.368Z,24.70
2018-11-26T12:50:21.956Z,23.83
2018-11-26T12:52:49.502Z,27.90
2018-11-26T12:55:18.156Z,26.48
2018-11-26T12:57:46.639Z,27.65
2018-11-26T13:00:18.404Z,26.27
2018-11-26T13:02:47.372Z,26.57
2018-11-26T13:05:15.990Z,25.30
2018-11-26T13:07:43.568Z,26.45
2018-11-26T13:10:16.394Z,25.52
2018-11-26T13:12:44.266Z,24.27
2018-11-26T13:15:14.609Z,24.63
2018-11-26T13:17:42.222Z,25.17
2018-11-26T13:20:13.588Z,25.85
2018-11-26T13:22:41.132Z,26.30
2018-11-26T13:25:10.141Z,26.93
2018-11-26T13:27:38.372Z,25.95
2018-11-26T13:30:16.956Z,26.33
2018-11-26T13:32:46.026Z,23.92
2018-11-26T13:35:14.438Z,27.20
2018-11-26T13:37:42.076Z,24.85
2018-11-26T13:40:13.611Z,24.87
2018-11-26T13:42:41.381Z,23.42
2018-11-26T13:45:11.132Z,25.68
2018-11-26T13:47:38.859Z,26.15
2018-11-26T13:50:09.642Z,25.15
2018-11-26T13:52:37.251Z,24.70
2018-11-26T13:55:07.140Z,25.40
2018-11-26T13:57:34.739Z,24.02
2018-11-26T14:00:02.461Z,23.60
2018-11-26T14:02:30.027Z,24.77
2018-11-26T14:04:57.504Z,25.05
2018-11-26T14:07:25.092Z,24.90
2018-11-26T14:09:52.588Z,26.37
2018-11-26T14:12:20.069Z,25.40
2018-11-26T14:14:51.697Z,23.73
2018-11-26T14:17:15.313Z,25.02
2018-11-26T14:19:42.801Z,25.40
2018-11-26T14:22:10.634Z,23.85
2018-11-26T14:24:38.060Z,22.87
2018-11-26T14:27:05.745Z,22.42
2018-11-26T14:29:33.297Z,21.90
2018-11-26T14:32:00.819Z,22.37
2018-11-26T14:34:28.396Z,21.33
2018-11-26T14:36:55.897Z,23.22
2018-11-26T14:39:23.452Z,23.00
2018-11-26T14:41:50.944Z,23.75
2018-11-26T14:44:18.514Z,20.92
2018-11-26T14:46:46.020Z,20.25
2018-11-26T14:49:13.607Z,20.80
2018-11-26T14:51:41.116Z,19.87
2018-11-26T14:54:08.715Z,19.05
2018-11-26T14:56:36.271Z,18.60
2018-11-26T14:59:03.821Z,19.55
2018-11-26T15:01:31.426Z,17.65
2018-11-26T15:03:59.017Z,17.67
2018-11-26T15:06:26.575Z,17.25
2018-11-26T15:08:54.132Z,19.70
2018-11-26T15:11:21.716Z,17.82
2018-11-26T15:13:49.329Z,21.60
2018-11-26T15:16:16.980Z,18.55
2018-11-26T15:18:44.523Z,20.20
2018-11-26T15:21:12.174Z,19.92
2018-11-26T15:23:39.732Z,19.87
2018-11-26T15:26:07.310Z,21.25
2018-11-26T15:28:34.890Z,19.82
2018-11-26T15:31:02.816Z,19.17
2018-11-26T15:33:30.303Z,19.90
2018-11-26T15:35:57.917Z,18.30
2018-11-26T15:38:25.397Z,19.15
2018-11-26T15:40:53.318Z,21.90
2018-11-26T15:43:20.807Z,19.62
2018-11-26T15:45:48.410Z,20.77
2018-11-26T15:48:15.970Z,20.97
2018-11-26T15:50:43.610Z,19.55
2018-11-26T15:53:11.198Z,20.00
2018-11-26T15:55:38.841Z,19.15
2018-11-26T15:58:07.388Z,19.00
2018-11-26T16:00:34.909Z,19.17
2018-11-26T16:03:02.687Z,18.00
2018-11-26T16:05:31.175Z,18.50
2018-11-26T16:08:02.447Z,18.80
2018-11-26T16:10:29.982Z,18.60
2018-11-26T16:12:59.353Z,18.48
2018-11-26T16:15:29.453Z,18.82
2018-11-26T16:17:58.624Z,18.80
2018-11-26T16:20:26.967Z,18.65
2018-11-26T16:22:55.301Z,16.82
2018-11-26T16:25:23.619Z,19.30
2018-11-26T16:27:51.208Z,17.98
2018-11-26T16:30:18.893Z,17.62
2018-11-26T16:32:51.114Z,18.25
2018-11-26T16:35:20.995Z,17.48
2018-11-26T16:37:48.578Z,18.70
2018-11-26T16:40:16.724Z,16.90
2018-11-26T16:42:44.314Z,18.15
2018-11-26T16:45:19.818Z,17.75
2018-11-26T16:47:49.658Z,18.00
2018-11-26T16:50:18.347Z,18.32
2018-11-26T16:52:45.826Z,17.95
2018-11-26T16:55:14.135Z,17.75
2018-11-26T16:57:41.711Z,16.50
2018-11-26T17:00:12.880Z,17.75
2018-11-26T17:02:43.040Z,17.50
2018-11-26T17:05:14.048Z,18.60
2018-11-26T17:07:41.642Z,18.48
2018-11-26T17:10:10.011Z,18.27
2018-11-26T17:12:37.818Z,17.70
2018-11-26T17:15:07.798Z,20.45
2018-11-26T17:17:35.397Z,20.05
2018-11-26T17:20:03.028Z,18.73
2018-11-26T17:22:30.613Z,19.60
2018-11-26T17:24:58.141Z,18.20
2018-11-26T17:27:25.724Z,20.80
2018-11-26T17:29:53.270Z,21.97
2018-11-26T17:32:20.945Z,19.90
2018-11-26T17:34:48.441Z,19.98
2018-11-26T17:37:16.059Z,19.60
2018-11-26T17:39:43.583Z,21.23
2018-11-26T17:42:11.225Z,23.80
2018-11-26T17:44:38.744Z,22.40
2018-11-26T17:47:06.416Z,23.00
2018-11-26T17:49:33.980Z,24.40
2018-11-26T17:52:01.648Z,23.65
2018-11-26T17:54:29.170Z,21.65
2018-11-26T17:56:56.765Z,23.18
2018-11-26T17:59:24.341Z,21.52
2018-11-26T18:01:51.835Z,21.17
2018-11-26T18:04:19.540Z,23.22
2018-11-26T18:06:47.611Z,22.48
2018-11-26T18:09:14.693Z,21.00
2018-11-26T18:11:42.259Z,22.13
2018-11-26T18:14:09.965Z,21.17
2018-11-26T18:16:37.497Z,22.10
2018-11-26T18:19:05.678Z,22.65
2018-11-26T18:21:33.218Z,22.60
2018-11-26T18:24:00.899Z,22.10
2018-11-26T18:26:28.485Z,21.90
2018-11-26T18:28:56.068Z,23.38
2018-11-26T18:31:23.702Z,22.73
2018-11-26T18:33:51.394Z,21.30
2018-11-26T18:36:18.994Z,21.23
2018-11-26T18:38:46.585Z,22.17
2018-11-26T18:41:14.242Z,21.60
2018-11-26T18:43:41.812Z,21.23
2018-11-26T18:46:09.396Z,20.70
2018-11-26T18:48:36.923Z,21.87
2018-11-26T18:51:04.594Z,21.33
2018-11-26T18:53:32.827Z,22.90
2018-11-26T18:56:00.856Z,20.32
2018-11-26T18:58:28.399Z,20.85
2018-11-26T19:00:58.446Z,20.25
2018-11-26T19:03:26.041Z,21.50
2018-11-26T19:05:54.171Z,21.50
2018-11-26T19:08:21.757Z,23.40
2018-11-26T19:10:53.406Z,20.95
2018-11-26T19:13:31.532Z,20.82
2018-11-26T19:18:58.491Z,21.27
2018-11-26T19:21:26.059Z,21.95
2018-11-26T19:23:53.678Z,22.45
2018-11-26T19:26:21.322Z,24.43
2018-11-26T19:28:48.878Z,21.90
2018-11-26T20:00:15.318Z,23.50
2018-11-26T20:02:44.150Z,23.75
2018-11-26T20:05:15.674Z,23.50
2018-11-26T20:07:43.218Z,23.65
2018-11-26T20:13:10.292Z,21.25
2018-11-26T20:15:37.916Z,23.62
2018-11-26T20:18:06.061Z,22.95
2018-11-26T20:20:33.686Z,23.00
2018-11-26T20:23:01.373Z,22.13
2018-11-26T20:25:29.021Z,22.50
2018-11-26T20:27:56.557Z,23.87
2018-11-26T20:33:17.099Z,23.62
2018-11-26T20:35:44.761Z,23.40
2018-11-26T20:38:13.753Z,24.92
2018-11-26T20:40:41.395Z,24.57
2018-11-26T20:43:10.139Z,23.70
2018-11-26T20:45:39.275Z,21.77
2018-11-26T20:48:07.829Z,24.95
2018-11-26T20:50:35.388Z,22.40
2018-11-26T20:53:03.092Z,22.90
2018-11-26T20:55:30.675Z,23.40
2018-11-26T20:57:58.331Z,24.27
2018-11-26T21:00:27.282Z,23.67
2018-11-26T21:03:02.866Z,23.75
2018-11-26T21:05:30.455Z,23.95
2018-11-26T21:07:58.101Z,24.10
2018-11-26T21:10:25.654Z,24.55
2018-11-26T21:12:53.360Z,24.00
2018-11-26T21:15:20.845Z,24.65
2018-11-26T21:17:49.745Z,24.30
2018-11-26T21:20:21.739Z,25.12
2018-11-26T21:22:49.349Z,23.95
2018-11-26T21:25:17.248Z,25.25
2018-11-26T21:27:44.802Z,22.87
2018-11-26T21:30:14.312Z,25.85
2018-11-26T21:32:41.851Z,24.10
2018-11-26T21:35:10.649Z,25.00
2018-11-26T21:37:39.073Z,24.05
2018-11-26T21:40:10.936Z,26.30
2018-11-26T21:42:38.462Z,24.50
2018-11-26T21:45:12.484Z,23.85
2018-11-26T21:47:39.999Z,24.85
2018-11-26T21:50:10.234Z,26.70
2018-11-26T21:52:37.813Z,24.18
2018-11-26T21:55:07.561Z,25.20
2018-11-26T21:57:35.057Z,22.02
2018-11-26T22:00:03.912Z,24.10
2018-11-26T22:02:31.467Z,24.77
2018-11-26T22:04:59.125Z,24.37
2018-11-26T22:07:26.603Z,25.55
2018-11-26T22:09:54.190Z,23.87
2018-11-26T22:12:21.675Z,25.10
2018-11-26T22:14:49.261Z,23.83
2018-11-26T22:17:16.876Z,25.27
2018-11-26T22:19:44.376Z,25.02
2018-11-26T22:22:11.953Z,24.35
2018-11-26T22:24:39.449Z,24.60
2018-11-26T22:27:07.021Z,22.70
2018-11-26T22:29:34.473Z,25.15
2018-11-26T22:32:02.095Z,25.80
2018-11-26T22:34:29.594Z,23.57
2018-11-26T22:36:57.165Z,25.35
2018-11-26T22:39:24.665Z,24.63
2018-11-26T22:41:52.216Z,24.75
2018-11-26T22:44:19.672Z,24.02
2018-11-26T22:46:47.243Z,24.20
2018-11-26T22:49:14.736Z,27.40
2018-11-26T22:51:42.327Z,23.90
2018-11-26T22:54:09.800Z,23.57
2018-11-26T22:56:37.354Z,24.85
2018-11-26T22:59:05.315Z,24.15
2018-11-26T23:01:32.842Z,22.98
2018-11-26T23:04:00.348Z,24.45
2018-11-26T23:09:01.500Z,22.93
2018-11-26T23:11:29.076Z,23.42
2018-11-26T23:13:56.638Z,23.77
2018-11-26T23:16:24.171Z,23.45
2018-11-26T23:18:52.212Z,25.37
2018-11-26T23:21:19.752Z,24.20
2018-11-26T23:23:47.316Z,22.37
2018-11-26T23:26:15.104Z,23.60
2018-11-26T23:28:42.718Z,25.88
2018-11-26T23:31:10.218Z,22.70
2018-11-26T23:33:37.755Z,23.18
2018-11-26T23:36:05.269Z,23.18
2018-11-26T23:38:32.800Z,24.10
2018-11-26T23:41:00.335Z,25.02
2018-11-26T23:43:27.879Z,24.50
2018-11-26T23:46:00.484Z,26.10
2018-11-26T23:48:28.079Z,24.77
2018-11-26T23:50:55.540Z,25.10
2018-11-26T23:53:23.124Z,24.00
2018-11-26T23:55:50.601Z,24.02
2018-11-26T23:58:18.807Z,22.52
